• Join FlightAware (Why Join?)
  • Login
  • US Flag 
08:34PM EDT


 

Airport Tracker/Info


-or-


 

Live Flight TrackerFlight Track Log ✈ EJA929 ✈ 02-May-2014 ✈ KSDL - KSFO

Flight Track Log - Related Links

Times and Time Zones

All times are in EDT time to prevent confusion due to time zone crossing. See the EJA929 flight status page for this flight to view local times or setup timezone preferences in your user account.

Time Position Orientation Groundspeed Altitude Reporting Facility
EDT Latitude Longitude Course Direction KTS MPH feet Rate Location/Type
06:41PM 33.6167 -111.9333 334° Northwest 173 199 2,500  Level Phoenix TRACON
06:42PM 33.6294 -111.9911 285° West 224 258 5,900 3,720 Climbing Albuquerque Center
06:43PM 33.6944 -112.0544 321° Northwest 259 298 11,000 4,380 Climbing Albuquerque Center
06:44PM 33.7611 -112.1092 326° Northwest 284 327 14,900 3,660 Climbing Albuquerque Center
06:46PM 33.8333 -112.1703 325° Northwest 310 357 18,600 2,400 Climbing Albuquerque Center
06:47PM 34.1553 -112.4085 334° Northwest  Level FlightAware Approximate
06:47PM 33.9117 -112.2353 325° Northwest 339 390 19,900  Level Albuquerque Center
06:48PM 33.9983 -112.3081 325° Northwest 374 430 21,900 2,160 Climbing Albuquerque Center
06:49PM 34.0917 -112.3736 330° Northwest 384 442 24,400 2,400 Climbing Albuquerque Center
06:50PM 34.1889 -112.4336 333° Northwest 386 444 26,900 1,980 Climbing Albuquerque Center
06:51PM 34.2911 -112.4961 333° Northwest 406 467 28,500 1,440 Climbing Albuquerque Center
06:52PM 34.4217 -112.5772 333° Northwest 435 501 29,900 1,080 Climbing Albuquerque Center
06:53PM 34.5314 -112.6444 333° Northwest 455 524 30,800 900 Climbing Albuquerque Center
06:54PM 34.6486 -112.7200 332° Northwest 473 544 31,800 960 Climbing Albuquerque Center
06:55PM 34.7478 -112.8294 318° Northwest 491 565 32,800 960 Climbing Albuquerque Center
06:56PM 34.8153 -112.9725 300° West 489 563 33,800 960 Climbing Albuquerque Center
06:57PM 34.8964 -113.1464 300° West 490 564 35,000 1,020 Climbing Los Angeles Center
06:58PM 34.9639 -113.2928 299° West 490 564 36,000 960 Climbing Albuquerque Center
06:59PM 35.0194 -113.4428 294° West 489 563 37,000 900 Climbing Los Angeles Center
07:00PM 35.0781 -113.6308 291° West 491 565 38,000 480 Climbing Los Angeles Center
07:01PM 35.1281 -113.7881 291° West 495 570 38,000  Level Los Angeles Center
07:02PM 35.1783 -113.9436 292° West 495 570 38,000  Level Los Angeles Center
07:03PM 35.2342 -114.1161 292° West 488 562 38,000  Level Los Angeles Center
07:04PM 35.2811 -114.2700 291° West 486 559 38,000  Level Los Angeles Center
07:05PM 35.3300 -114.4250 291° West 486 559 38,000  Level Los Angeles Center
07:06PM 35.3786 -114.5794 291° West 486 559 38,000  Level Los Angeles Center
07:07PM 35.4264 -114.7344 291° West 486 559 38,000  Level Los Angeles Center
07:08PM 35.4978 -114.8742 302° West 483 556 38,000  Level Los Angeles Center
07:09PM 35.6053 -115.0219 312° West 484 557 38,000  Level Los Angeles Center
07:10PM 35.6942 -115.1472 311° West 484 557 38,000  Level Los Angeles Center
07:11PM 35.7839 -115.2736 311° West 485 558 38,000  Level Los Angeles Center
07:13PM 35.8725 -115.4008 311° West 487 560 38,000  Level Los Angeles Center
07:14PM 35.9611 -115.5258 311° West 486 559 38,000  Level Los Angeles Center
07:15PM 36.0508 -115.6539 311° West 487 560 38,000  Level Los Angeles Center
07:16PM 36.1394 -115.7825 310° West 487 560 38,000  Level Los Angeles Center
07:17PM 36.2394 -115.9303 310° West 487 560 38,000  Level Los Angeles Center
07:18PM 36.3272 -116.0531 312° West 481 554 38,000  Level Los Angeles Center
07:19PM 36.4144 -116.1800 311° West 481 554 38,000  Level Los Angeles Center
07:20PM 36.5067 -116.3119 311° West 481 554 38,000  Level Los Angeles Center
07:21PM 36.6056 -116.4592 310° West 481 554 38,000  Level Los Angeles Center
07:22PM 36.6925 -116.5872 310° West 481 554 38,000  Level Los Angeles Center
07:23PM 36.7786 -116.7142 310° West 481 554 38,000  Level Los Angeles Center
07:24PM 36.8831 -116.8150 322° Northwest 480 552 38,000  Level Los Angeles Center
07:25PM 36.9947 -116.9089 326° Northwest 479 551 38,000  Level Los Angeles Center
07:26PM 37.1053 -117.0025 326° Northwest 479 551 38,000  Level Los Angeles Center
07:27PM 37.1969 -117.1233 314° West 486 559 38,000  Level Los Angeles Center
07:28PM 37.2639 -117.3061 295° West 488 562 38,000  Level Los Angeles Center
07:29PM 37.2817 -117.4783 277° West 493 567 38,000  Level Los Angeles Center
07:30PM 37.3008 -117.6481 278° West 492 566 38,000  Level Los Angeles Center
07:31PM 37.3189 -117.8158 278° West 488 562 38,000  Level Los Angeles Center
07:32PM 37.3392 -117.9856 279° West 488 562 38,000  Level Los Angeles Center
07:33PM 37.3572 -118.1550 278° West 488 562 38,000  Level Los Angeles Center
07:34PM 37.3753 -118.3197 278° West 488 562 38,000  Level Los Angeles Center
07:35PM 37.3972 -118.5200 278° West 486 559 38,000  Level Los Angeles Center
07:36PM 37.4153 -118.6958 277° West 487 560 38,000  Level Los Angeles Center
07:37PM 37.4325 -118.8786 277° West 486 559 38,000  Level Oakland Center
07:38PM 37.4494 -119.0458 277° West 486 559 38,000  Level Oakland Center
07:39PM 37.4664 -119.2133 277° West 485 558 38,000  Level Oakland Center
07:41PM 37.4831 -119.3803 277° West 485 558 38,000  Level Oakland Center
07:42PM 37.4994 -119.5517 277° West 485 558 38,000  Level Oakland Center
07:43PM 37.5150 -119.7194 277° West 484 557 38,000 -300 Level Oakland Center
07:44PM 37.5311 -119.8872 277° West 484 557 37,500 -1,740 Descending Oakland Center
07:45PM 37.5497 -120.0853 277° West 477 549 34,500 -2,760 Descending Oakland Center
07:46PM 37.5650 -120.2550 277° West 482 555 31,900 -2,580 Descending Oakland Center
07:47PM 37.5833 -120.4333 277° West 506 582 29,300 -2,640 Descending Northern Cal TRACON
07:48PM 37.6000 -120.6167 277° West 488 562 26,400 -2,520 Descending Northern Cal TRACON
07:49PM 37.6167 -120.7667 278° West 460 529 24,100 -2,340 Descending Northern Cal TRACON
07:50PM 37.6167 -120.9333 270° West 450 518 21,700 -2,400 Descending Northern Cal TRACON
07:51PM 37.6167 -121.0833 270° West 444 511 19,300 -2,400 Descending Northern Cal TRACON
07:52PM 37.6000 -121.2333 262° West 429 494 17,000 -2,100 Descending Northern Cal TRACON
07:53PM 37.5833 -121.3500 260° West 362 417 15,100 -1,800 Descending Northern Cal TRACON
07:54PM 37.5667 -121.4667 260° West 310 357 13,400 -1,680 Descending Northern Cal TRACON
07:55PM 37.5500 -121.5667 258° West 289 333 11,800 -1,500 Descending Northern Cal TRACON
07:56PM 37.5333 -121.6667 258° West 284 327 10,500 -1,200 Descending Northern Cal TRACON
07:57PM 37.5167 -121.7667 258° West 279 321 9,400 -1,140 Descending Northern Cal TRACON
07:58PM 37.5000 -121.8500 256° West 270 311 8,300 -900 Descending Northern Cal TRACON
07:59PM 37.5000 -121.9500 270° West 265 305 7,600 -1,080 Descending Northern Cal TRACON
08:00PM 37.5167 -122.0333 284° West 269 310 6,200 -1,200 Descending Northern Cal TRACON
08:01PM 37.5333 -122.1000 288° West 198 228 5,200 -1,500 Descending Northern Cal TRACON
08:02PM 37.5500 -122.1667 288° West 190 219 3,200 -1,440 Descending Northern Cal TRACON
08:03PM 37.5781 -122.2456 294° West 197 227 1,900 -1,020 Descending Oakland Center
08:04PM 37.5950 -122.3053 290° West 191 220 800 -780 Descending Oakland Center
08:05PM 37.6083 -122.3467 292° West 152 175 300 -360 Descending Oakland Center
08:06PM 37.6242 -122.3853 297° West 147 169 100 -240 Descending Oakland Center
08:08PM 37.6167 -122.3667 90° East  Level FlightAware Approximate